Time;durP1;ratioP1;P1;durP2;ratioP2;P2;SDS_P1;SDS_P2;PMS_P1;PMS_P2;Temp;Humidity;BMP_temperature;BMP_pressure;BME280_temperature;BME280_humidity;BME280_pressure;Samples;Min_cycle;Max_cycle;Signal;HPM_P1;HPM_P2
2021/11/10 00:01:40;;;;;;;7.57;5.55;;;;;;;17.37;64.85;102516.53;4758182;30;20047;-82
2021/11/10 00:04:10;;;;;;;8.10;5.68;;;;;;;17.38;64.86;102507.88;4757736;30;20053;-82
2021/11/10 00:06:36;;;;;;;10.68;5.82;;;;;;;17.37;64.98;102510.44;4757817;30;20057;-82
2021/11/10 00:09:06;;;;;;;9.15;6.00;;;;;;;17.37;64.93;102515.66;4743566;30;20051;-82
2021/11/10 00:11:32;;;;;;;9.57;5.72;;;;;;;17.36;64.87;102520.00;4742469;30;20071;-82
2021/11/10 00:13:58;;;;;;;8.75;5.45;;;;;;;17.36;64.85;102524.31;4732986;30;20036;-81
2021/11/10 00:16:49;;;;;;;8.43;5.63;;;;;;;17.40;65.02;102520.94;4742771;30;20028;-82
2021/11/10 00:19:18;;;;;;;10.23;5.70;;;;;;;17.39;64.61;102527.84;4742798;30;20040;-83
2021/11/10 00:21:45;;;;;;;7.70;5.50;;;;;;;17.38;64.63;102525.22;4758559;30;20061;-82
2021/11/10 00:24:50;;;;;;;9.55;5.75;;;;;;;17.37;64.93;102521.72;4742272;30;20070;-82
2021/11/10 00:27:19;;;;;;;9.20;5.53;;;;;;;17.37;64.86;102520.84;4757707;30;20020;-82
2021/11/10 00:29:56;;;;;;;8.82;5.85;;;;;;;17.36;64.65;102533.00;4757514;30;20036;-82
2021/11/10 00:32:51;;;;;;;7.00;5.32;;;;;;;17.39;64.91;102529.56;4793859;30;20087;-82
2021/11/10 00:35:20;;;;;;;7.50;5.80;;;;;;;17.37;64.65;102529.53;4793751;30;20061;-82
2021/11/10 00:37:47;;;;;;;7.40;5.40;;;;;;;17.38;64.57;102523.50;4793700;30;20031;-82
2021/11/10 00:40:17;;;;;;;9.25;6.10;;;;;;;17.40;64.59;102520.94;4778057;30;20063;-81
2021/11/10 00:42:44;;;;;;;7.45;5.13;;;;;;;17.37;64.58;102521.72;4792507;30;20028;-82
2021/11/10 00:45:10;;;;;;;7.40;5.57;;;;;;;17.37;64.51;102521.72;4776628;30;20070;-82
2021/11/10 00:47:39;;;;;;;9.00;6.03;;;;;;;17.36;64.91;102520.00;4791320;30;20057;-81
2021/11/10 00:50:07;;;;;;;8.40;5.30;;;;;;;17.37;64.66;102511.31;4791940;30;20036;-82
2021/11/10 00:52:35;;;;;;;8.82;5.95;;;;;;;17.38;64.81;102518.28;4791776;30;20046;-82
2021/11/10 00:55:03;;;;;;;8.57;6.00;;;;;;;17.37;64.75;102516.53;4767673;30;20044;-82
2021/11/10 00:57:30;;;;;;;6.95;5.68;;;;;;;17.39;64.73;102511.34;4792203;30;20035;-82
2021/11/10 00:59:56;;;;;;;7.85;5.53;;;;;;;17.37;64.49;102515.66;4792591;30;20100;-82
2021/11/10 01:02:22;;;;;;;9.68;5.70;;;;;;;17.34;64.59;102506.06;4776860;30;20028;-82
2021/11/10 01:04:51;;;;;;;7.85;5.10;;;;;;;17.37;64.65;102510.44;4790152;30;20032;-82
2021/11/10 01:07:17;;;;;;;8.82;5.80;;;;;;;17.38;64.57;102507.88;4790754;30;20032;-82
2021/11/10 01:09:47;;;;;;;7.35;5.20;;;;;;;17.40;64.30;102514.00;4789240;30;20092;-81
2021/11/10 01:12:14;;;;;;;7.85;5.50;;;;;;;17.39;64.46;102513.97;4789279;30;20032;-81
2021/11/10 01:14:43;;;;;;;8.90;5.65;;;;;;;17.39;64.60;102511.34;4789380;30;20063;-82
2021/11/10 01:17:09;;;;;;;7.38;5.80;;;;;;;17.36;64.77;102498.31;4789554;30;20086;-82
2021/11/10 01:19:39;;;;;;;7.35;5.47;;;;;;;17.37;64.35;102505.25;4789441;30;20036;-82
2021/11/10 01:22:05;;;;;;;9.82;6.07;;;;;;;17.36;64.47;102504.38;4774341;30;20064;-82
2021/11/10 01:24:32;;;;;;;7.93;5.40;;;;;;;17.39;64.41;102504.41;4789513;30;20042;-81
2021/11/10 01:26:58;;;;;;;8.70;6.05;;;;;;;17.36;64.57;102503.50;4790207;30;20031;-82
2021/11/10 01:29:24;;;;;;;8.50;5.95;;;;;;;17.36;64.41;102509.56;4788660;30;20045;-81
2021/11/10 01:31:56;;;;;;;8.13;5.57;;;;;;;17.36;64.33;102504.38;4789237;30;20028;-82
2021/11/10 01:34:24;;;;;;;8.18;5.68;;;;;;;17.38;64.64;102505.28;4788438;30;20032;-82
2021/11/10 01:36:49;;;;;;;11.80;6.03;;;;;;;17.37;64.38;102490.50;4764998;30;20081;-81
2021/11/10 01:39:16;;;;;;;8.07;5.85;;;;;;;17.38;64.38;102494.88;4769646;30;20036;-81
2021/11/10 01:41:47;;;;;;;9.18;5.68;;;;;;;17.36;64.61;102485.28;4785033;30;20036;-81
2021/11/10 01:44:17;;;;;;;9.02;5.80;;;;;;;17.37;64.57;102487.91;4783189;30;20035;-81
2021/11/10 01:46:44;;;;;;;7.72;5.40;;;;;;;17.37;64.41;102489.63;4770476;30;20043;-81
2021/11/10 01:49:11;;;;;;;8.57;5.90;;;;;;;17.36;64.11;102482.69;4755707;30;20056;-81
2021/11/10 01:51:50;;;;;;;10.10;5.60;;;;;;;17.39;64.43;102473.19;4784870;30;20059;-81
2021/11/10 01:54:19;;;;;;;7.78;5.72;;;;;;;17.39;64.17;102470.59;4770571;30;20043;-81
2021/11/10 01:56:45;;;;;;;8.32;5.65;;;;;;;17.39;64.44;102473.19;4771035;30;20024;-81
2021/11/10 01:59:41;;;;;;;8.77;5.63;;;;;;;17.40;64.31;102477.56;4788087;30;20024;-81
2021/11/10 02:02:19;;;;;;;8.40;5.38;;;;;;;17.40;64.15;102472.34;4772788;30;20130;-81
2021/11/10 02:04:47;;;;;;;9.27;5.70;;;;;;;17.40;64.12;102472.34;4786062;30;20126;-81
2021/11/10 02:07:14;;;;;;;8.95;5.65;;;;;;;17.40;64.04;102467.16;4787671;30;20063;-82
2021/11/10 02:09:41;;;;;;;9.73;5.95;;;;;;;17.41;64.12;102468.88;4771888;30;20028;-81
2021/11/10 02:12:07;;;;;;;8.65;5.97;;;;;;;17.40;64.11;102468.88;4771311;30;20620;-81
2021/11/10 02:14:32;;;;;;;8.38;5.70;;;;;;;17.40;64.24;102463.69;4786201;30;20031;-81
2021/11/10 02:16:59;;;;;;;7.43;5.65;;;;;;;17.41;64.23;102460.22;4781354;30;20505;-80
2021/11/10 02:19:25;;;;;;;9.60;5.72;;;;;;;17.39;64.25;102464.50;4768222;30;20039;-81
2021/11/10 02:21:56;;;;;;;9.38;5.50;;;;;;;17.39;63.83;102452.38;4784440;29;20063;-81
2021/11/10 02:24:23;;;;;;;8.45;5.72;;;;;;;17.41;64.06;102444.59;4769126;30;20055;-80
2021/11/10 02:26:51;;;;;;;7.03;5.60;;;;;;;17.39;63.98;102436.75;4783823;30;20027;-81
2021/11/10 02:29:19;;;;;;;8.07;5.38;;;;;;;17.41;64.00;102442.88;4782153;30;20065;-81
2021/11/10 02:31:46;;;;;;;7.60;5.68;;;;;;;17.38;63.71;102428.94;4782728;30;20028;-81
2021/11/10 02:34:13;;;;;;;10.32;5.75;;;;;;;17.40;64.12;102425.50;4783857;30;20032;-81
2021/11/10 02:36:39;;;;;;;7.10;4.82;;;;;;;17.41;63.79;102415.97;4770873;30;20126;-81
2021/11/10 02:39:17;;;;;;;7.60;5.35;;;;;;;17.40;63.83;102401.22;4785123;30;20027;-82
2021/11/10 02:41:46;;;;;;;7.57;5.40;;;;;;;17.41;63.90;102413.38;4785872;30;20045;-81
2021/11/10 02:44:17;;;;;;;8.05;5.68;;;;;;;17.39;63.73;102400.31;4784934;30;20047;-82
2021/11/10 02:46:43;;;;;;;8.48;5.28;;;;;;;17.39;63.88;102400.31;4784853;30;20028;-81
2021/11/10 02:49:10;;;;;;;7.53;5.60;;;;;;;17.41;63.73;102405.56;4769508;30;20039;-81
2021/11/10 02:51:36;;;;;;;9.20;5.53;;;;;;;17.41;63.78;102405.56;4784995;30;20051;-81
2021/11/10 02:54:13;;;;;;;7.45;5.32;;;;;;;17.40;63.79;102403.81;4770200;30;20035;-81
2021/11/10 02:56:39;;;;;;;7.82;5.35;;;;;;;17.38;63.84;102403.78;4786487;30;20042;-81
2021/11/10 02:59:06;;;;;;;10.95;5.35;;;;;;;17.41;63.82;102398.63;4778822;30;20481;-81
2021/11/10 03:01:32;;;;;;;9.18;5.47;;;;;;;17.41;63.81;102403.81;4782200;30;20066;-81
2021/11/10 03:03:57;;;;;;;8.27;5.10;;;;;;;17.41;63.73;102405.56;4767985;30;20043;-81
2021/11/10 03:06:23;;;;;;;8.77;5.38;;;;;;;17.39;63.95;102404.66;4767461;30;20035;-82
2021/11/10 03:08:49;;;;;;;8.85;5.68;;;;;;;17.41;63.86;102397.75;4782815;30;20088;-81
2021/11/10 03:11:16;;;;;;;7.70;5.45;;;;;;;17.41;63.64;102402.97;4768511;30;20042;-80
2021/11/10 03:13:41;;;;;;;7.82;5.35;;;;;;;17.41;63.64;102406.44;4779353;30;20055;-80
2021/11/10 03:16:08;;;;;;;7.78;5.15;;;;;;;17.40;63.64;102407.28;4782373;30;20020;-80
2021/11/10 03:18:33;;;;;;;8.70;5.45;;;;;;;17.41;63.90;102414.22;4779630;30;20482;-80
2021/11/10 03:20:59;;;;;;;7.95;5.10;;;;;;;17.41;63.49;102415.97;4762916;29;20040;-81
2021/11/10 03:23:24;;;;;;;7.18;4.90;;;;;;;17.39;63.76;102407.25;4780548;30;20107;-81
2021/11/10 03:25:50;;;;;;;8.20;4.93;;;;;;;17.38;63.72;102406.41;4783547;30;20062;-81
2021/11/10 03:28:15;;;;;;;8.63;5.38;;;;;;;17.37;63.78;102403.75;4787612;30;20063;-81
2021/11/10 03:30:41;;;;;;;8.10;5.07;;;;;;;17.39;63.50;102399.47;4784280;30;20069;-81
2021/11/10 03:33:13;;;;;;;7.38;5.10;;;;;;;17.39;63.62;102399.47;4786034;30;20059;-81
2021/11/10 03:35:39;;;;;;;8.85;5.55;;;;;;;17.38;63.83;102409.00;4790849;30;20035;-81
2021/11/10 03:38:05;;;;;;;9.65;5.00;;;;;;;17.40;63.84;102416.84;4790285;30;20032;-81
2021/11/10 03:40:32;;;;;;;8.98;5.05;;;;;;;17.39;63.88;102420.28;4783553;30;20038;-81
2021/11/10 03:42:57;;;;;;;8.55;5.40;;;;;;;17.41;63.65;102422.03;4789020;30;20085;-81
2021/11/10 03:45:23;;;;;;;10.98;5.35;;;;;;;17.39;63.54;102420.28;4788309;30;20031;-81
2021/11/10 03:47:49;;;;;;;7.70;5.25;;;;;;;17.40;63.56;102422.03;4769978;30;20035;-81
2021/11/10 03:50:14;;;;;;;8.02;5.25;;;;;;;17.42;63.70;102428.13;4787195;30;20039;-81
2021/11/10 03:52:40;;;;;;;8.48;5.00;;;;;;;17.40;63.41;102422.91;4788211;30;20032;-82
2021/11/10 03:55:06;;;;;;;7.85;4.85;;;;;;;17.42;63.46;102420.31;4787206;30;20028;-81
2021/11/10 03:57:36;;;;;;;8.20;4.85;;;;;;;17.38;63.40;102419.41;4789623;30;20050;-82
2021/11/10 04:00:03;;;;;;;8.30;4.90;;;;;;;17.40;63.70;102428.13;4788258;30;20048;-81
2021/11/10 04:02:30;;;;;;;8.25;5.13;;;;;;;17.40;63.51;102429.84;4772658;30;20115;-81
2021/11/10 04:04:56;;;;;;;6.65;4.82;;;;;;;17.40;63.35;102422.03;4788972;30;20032;-81
2021/11/10 04:07:22;;;;;;;7.60;5.22;;;;;;;17.41;63.34;102422.03;4790053;30;20046;-81
2021/11/10 04:09:49;;;;;;;8.50;5.32;;;;;;;17.41;63.26;102424.66;4789372;30;20036;-82
2021/11/10 04:12:15;;;;;;;7.72;5.03;;;;;;;17.40;63.33;102415.09;4791113;30;20035;-81
2021/11/10 04:14:41;;;;;;;8.85;5.15;;;;;;;17.42;63.33;102428.13;4790743;30;20030;-81
2021/11/10 04:17:15;;;;;;;8.88;5.10;;;;;;;17.39;63.23;102431.56;4790356;30;20490;-82
2021/11/10 04:19:41;;;;;;;7.57;5.22;;;;;;;17.39;63.36;102426.34;4788991;30;20038;-81
2021/11/10 04:22:14;;;;;;;10.82;5.13;;;;;;;17.41;63.16;102424.66;4782773;29;20502;-81
2021/11/10 04:24:41;;;;;;;10.05;4.90;;;;;;;17.40;63.25;102429.84;4792520;30;20038;-82
2021/11/10 04:27:07;;;;;;;7.30;5.22;;;;;;;17.39;63.17;102421.13;4792497;30;20040;-81
2021/11/10 04:29:36;;;;;;;9.13;5.32;;;;;;;17.40;63.07;102415.09;4791070;30;20472;-81
2021/11/10 04:32:08;;;;;;;7.43;5.18;;;;;;;17.42;63.31;102417.72;4790294;30;20032;-81
2021/11/10 04:37:59;;;;;;;7.80;5.00;;;;;;;17.42;63.11;102423.81;4791214;30;20593;-82
2021/11/10 04:40:31;;;;;;;7.68;5.18;;;;;;;17.39;63.02;102431.56;4791163;30;20032;-81
2021/11/10 04:43:17;;;;;;;9.63;5.40;;;;;;;17.41;63.20;102434.19;4789878;30;20111;-81
2021/11/10 04:45:45;;;;;;;8.05;5.05;;;;;;;17.41;62.94;102442.88;4790266;30;20061;-80
2021/11/10 04:48:20;;;;;;;8.55;5.80;;;;;;;17.41;63.14;102445.47;4790391;30;20036;-81
2021/11/10 04:50:47;;;;;;;8.80;5.10;;;;;;;17.41;62.96;102445.47;4788783;30;20099;-81
2021/11/10 04:53:23;;;;;;;8.65;5.47;;;;;;;17.42;62.99;102444.63;4789769;30;20287;-81
2021/11/10 04:55:49;;;;;;;8.18;4.97;;;;;;;17.41;63.06;102442.88;4773932;30;20081;-81
2021/11/10 04:58:15;;;;;;;8.40;5.60;;;;;;;17.40;63.05;102451.53;4774264;30;20649;-79
2021/11/10 05:00:45;;;;;;;8.90;5.28;;;;;;;17.42;63.24;102446.34;4789411;30;20053;-81
2021/11/10 05:03:11;;;;;;;9.02;5.60;;;;;;;17.41;63.12;102455.88;4785011;30;20032;-80
2021/11/10 05:09:07;;;;;;;8.20;5.28;;;;;;;17.41;62.90;102453.28;4786684;30;20038;-81
2021/11/10 05:11:34;;;;;;;11.00;5.50;;;;;;;17.42;63.09;102448.94;4772832;30;20034;-82
2021/11/10 05:13:59;;;;;;;11.40;5.60;;;;;;;17.41;62.90;102450.66;4790884;30;20071;-81
2021/11/10 05:16:25;;;;;;;8.00;5.65;;;;;;;17.42;62.79;102444.63;4789003;30;20116;-81
2021/11/10 05:18:52;;;;;;;8.30;5.40;;;;;;;17.41;63.01;102442.88;4787842;30;20048;-82
2021/11/10 05:21:18;;;;;;;8.50;5.47;;;;;;;17.41;62.86;102442.00;4794932;30;20047;-81
2021/11/10 05:23:44;;;;;;;8.63;5.53;;;;;;;17.40;62.66;102440.25;4794589;30;20073;-82
2021/11/10 05:26:11;;;;;;;9.20;5.85;;;;;;;17.42;62.90;102439.44;4809926;30;20035;-82
2021/11/10 05:28:37;;;;;;;9.27;5.30;;;;;;;17.42;62.75;102438.53;4795051;30;20043;-77
2021/11/10 05:31:04;;;;;;;9.88;5.55;;;;;;;17.43;62.40;102443.75;4808951;29;20026;-80
2021/11/10 05:40:03;;;;;;;9.52;5.40;;;;;;;17.52;62.32;102443.03;4812193;29;20038;-83
2021/11/10 05:46:17;;;;;;;8.45;5.70;;;;;;;17.59;62.27;102449.22;4805088;29;20035;-82
2021/11/10 05:52:45;;;;;;;8.55;5.40;;;;;;;17.65;61.72;102444.13;4758198;30;20040;-83
2021/11/10 05:59:27;;;;;;;8.48;5.70;;;;;;;17.68;61.74;102450.25;4756835;30;20074;-83
2021/11/10 06:17:41;;;;;;;7.70;5.43;;;;;;;17.69;62.32;102448.53;5152638;24;20343;-79
2021/11/10 06:20:08;;;;;;;8.93;5.80;;;;;;;17.70;62.54;102445.06;4811583;29;20388;-78
2021/11/10 06:22:35;;;;;;;7.63;5.05;;;;;;;17.73;62.44;102454.66;4827789;29;20034;-81
2021/11/10 06:25:02;;;;;;;11.95;5.90;;;;;;;17.76;62.46;102454.69;4843785;29;20083;-82
2021/11/10 06:27:27;;;;;;;14.65;4.97;;;;;;;17.77;62.42;102451.22;4814317;29;20042;-78
2021/11/10 06:29:53;;;;;;;8.85;4.95;;;;;;;17.73;62.62;102452.06;4817350;29;20406;-81
2021/11/10 06:32:45;;;;;;;7.72;5.15;;;;;;;17.74;62.71;102454.66;4836968;29;20053;-82
2021/11/10 06:39:11;;;;;;;10.73;5.13;;;;;;;17.73;62.96;102470.28;4848878;29;20094;-83
2021/11/10 06:41:38;;;;;;;8.77;4.65;;;;;;;17.72;62.94;102466.78;4848067;29;20058;-84
2021/11/10 06:44:12;;;;;;;8.10;5.00;;;;;;;17.72;62.81;102474.59;4847225;29;20063;-83
2021/11/10 06:47:05;;;;;;;10.18;5.35;;;;;;;17.73;63.01;102476.38;4846556;29;20133;-83
2021/11/10 06:49:49;;;;;;;8.45;5.10;;;;;;;17.74;62.96;102474.63;4847256;29;20010;-82
2021/11/10 06:52:28;;;;;;;8.48;4.93;;;;;;;17.75;62.81;102465.97;4847168;29;20062;-83
2021/11/10 06:55:07;;;;;;;9.32;5.45;;;;;;;17.73;62.80;102471.16;4847677;29;20053;-84
2021/11/10 07:01:22;;;;;;;9.80;4.57;;;;;;;17.77;62.66;102474.66;4810898;29;20066;-82
2021/11/10 07:03:56;;;;;;;9.38;5.13;;;;;;;17.75;62.88;102471.19;4794761;29;20039;-83
2021/11/10 07:07:00;;;;;;;9.05;4.57;;;;;;;17.78;62.72;102479.03;4808725;29;20096;-80
2021/11/10 07:09:47;;;;;;;9.88;5.13;;;;;;;17.77;62.78;102487.69;4827342;29;20091;-82
2021/11/10 07:12:17;;;;;;;7.07;4.78;;;;;;;17.75;62.76;102481.59;4824324;29;20046;-83
2021/11/10 07:14:44;;;;;;;8.23;4.82;;;;;;;17.78;62.79;102476.44;4813723;29;20507;-84
2021/11/10 07:17:12;;;;;;;13.63;4.72;;;;;;;17.78;62.56;102474.69;4795549;29;20050;-82
2021/11/10 07:23:11;;;;;;;9.30;4.80;;;;;;;17.81;62.27;102481.69;4831843;29;20046;-83
2021/11/10 07:25:44;;;;;;;7.15;4.80;;;;;;;17.78;62.22;102479.03;4816007;29;20138;-83
2021/11/10 07:28:32;;;;;;;7.78;4.93;;;;;;;17.80;62.21;102482.53;4831025;29;20107;-82
2021/11/10 07:37:45;;;;;;;8.00;4.40;;;;;;;17.79;62.03;102489.50;4831460;29;20049;-83
2021/11/10 07:43:52;;;;;;;8.18;4.40;;;;;;;17.86;61.68;102483.53;5119326;24;20058;-84
2021/11/10 07:47:10;;;;;;;7.32;4.18;;;;;;;17.92;61.68;102497.50;4834662;29;20051;-84
2021/11/10 08:06:39;;;;;;;8.23;3.92;;;;;;;17.82;62.66;102486.94;4846415;29;20095;-86
2021/11/10 08:12:32;;;;;;;6.05;3.85;;;;;;;17.81;62.87;102477.38;4931434;24;20114;-83
2021/11/10 08:14:58;;;;;;;7.65;4.28;;;;;;;17.84;62.94;102471.38;4849268;29;20132;-83
2021/11/10 08:17:27;;;;;;;6.85;4.40;;;;;;;17.86;62.97;102464.44;4848905;29;20022;-83
2021/11/10 08:19:52;;;;;;;6.50;4.00;;;;;;;17.91;62.40;102456.69;4849656;29;20038;-84
2021/11/10 08:22:18;;;;;;;9.35;4.25;;;;;;;17.93;62.81;102457.59;4849970;29;20090;-83
2021/11/10 08:24:47;;;;;;;7.80;3.92;;;;;;;17.89;62.60;102460.13;4849355;29;20021;-83
2021/11/10 08:27:13;;;;;;;6.45;3.97;;;;;;;17.88;62.79;102452.31;4834379;29;20031;-84
2021/11/10 08:29:39;;;;;;;9.18;3.90;;;;;;;17.92;62.66;102455.84;4833955;29;20015;-82
2021/11/10 08:32:05;;;;;;;5.47;3.90;;;;;;;17.97;62.66;102464.63;4840478;29;20034;-83
2021/11/10 08:34:30;;;;;;;7.25;4.28;;;;;;;17.96;62.59;102471.53;4848534;29;20038;-83
2021/11/10 08:36:56;;;;;;;5.88;3.90;;;;;;;17.97;62.66;102488.06;4833093;29;20036;-84
2021/11/10 08:39:21;;;;;;;6.95;4.13;;;;;;;17.98;62.69;102498.47;4849140;29;20014;-83
2021/11/10 08:41:48;;;;;;;7.45;4.40;;;;;;;18.00;62.66;102488.94;4833481;29;20055;-84
2021/11/10 08:44:16;;;;;;;6.85;3.92;;;;;;;17.99;62.43;102473.31;4849571;29;20023;-83
2021/11/10 08:46:42;;;;;;;5.97;3.90;;;;;;;17.99;62.73;102473.31;4834530;29;20018;-83
2021/11/10 08:49:09;;;;;;;6.82;3.92;;;;;;;17.99;62.72;102475.94;4848849;29;20030;-82
2021/11/10 08:51:35;;;;;;;6.15;3.88;;;;;;;17.94;62.70;102475.84;4849371;29;20014;-84
2021/11/10 08:54:01;;;;;;;5.55;3.70;;;;;;;17.92;62.78;102494.91;4849482;29;20030;-83
2021/11/10 08:56:26;;;;;;;7.03;3.70;;;;;;;17.96;62.82;102494.09;4834467;29;20026;-83
2021/11/10 08:58:52;;;;;;;6.32;4.13;;;;;;;17.96;62.85;102489.75;4834191;29;20018;-83
2021/11/10 09:01:18;;;;;;;5.80;3.78;;;;;;;17.98;62.57;102477.63;4834189;29;20510;-83
2021/11/10 09:03:45;;;;;;;7.30;3.85;;;;;;;17.99;62.75;102468.97;4834007;29;20022;-83
2021/11/10 09:06:12;;;;;;;7.20;4.00;;;;;;;17.98;62.79;102477.63;4848766;29;20031;-83
2021/11/10 09:14:09;;;;;;;7.30;3.90;;;;;;;17.91;62.90;102487.97;4879197;24;20065;-82
2021/11/10 09:22:08;;;;;;;6.47;3.65;;;;;;;17.84;63.04;102494.81;5610809;23;20045;-82
2021/11/10 09:28:14;;;;;;;7.50;4.10;;;;;;;17.81;63.10;102510.31;4848964;29;20055;-82
2021/11/10 09:30:54;;;;;;;6.47;3.95;;;;;;;17.80;63.26;102504.25;4847502;29;20050;-81
2021/11/10 09:33:25;;;;;;;6.35;3.80;;;;;;;17.80;63.30;102509.44;4848718;29;20033;-83
2021/11/10 09:39:26;;;;;;;6.30;3.65;;;;;;;17.78;63.32;102516.34;4848550;29;20066;-81
2021/11/10 09:42:01;;;;;;;5.53;3.90;;;;;;;17.76;63.07;102507.66;4848113;29;20033;-82
2021/11/10 09:44:28;;;;;;;5.40;3.65;;;;;;;17.78;62.96;102511.16;4817853;29;20065;-82
2021/11/10 09:46:55;;;;;;;5.18;3.58;;;;;;;17.77;63.03;102501.59;4833022;29;20033;-83
2021/11/10 09:49:22;;;;;;;5.93;3.65;;;;;;;17.78;63.16;102502.47;4830730;29;20098;-79
2021/11/10 09:51:49;;;;;;;6.15;3.92;;;;;;;17.77;62.89;102503.31;4841230;29;20034;-80
2021/11/10 09:55:07;;;;;;;5.57;3.67;;;;;;;17.79;63.09;102509.41;4839778;29;20022;-82
2021/11/10 10:01:01;;;;;;;6.20;3.75;;;;;;;17.79;63.23;102514.63;4849180;29;20025;-83
2021/11/10 10:04:13;;;;;;;5.15;3.42;;;;;;;17.82;62.99;102509.53;4847979;29;20022;-83
2021/11/10 10:06:48;;;;;;;6.07;3.67;;;;;;;17.82;63.03;102510.38;4773279;30;20047;-83
2021/11/10 10:09:15;;;;;;;5.72;3.85;;;;;;;17.85;63.17;102509.56;4772784;30;20040;-83
2021/11/10 10:11:41;;;;;;;6.82;3.88;;;;;;;17.89;62.74;102512.22;4743823;30;20075;-83
2021/11/10 10:14:14;;;;;;;5.45;3.30;;;;;;;17.91;62.54;102514.88;4758091;30;20051;-83
2021/11/10 10:16:56;;;;;;;5.45;3.78;;;;;;;17.89;62.69;102520.03;4772224;30;20581;-84
2021/11/10 10:19:23;;;;;;;5.68;3.25;;;;;;;17.92;62.42;102516.63;4745015;30;20098;-79
2021/11/10 10:22:02;;;;;;;5.72;3.45;;;;;;;17.93;62.53;102513.16;4742139;30;20709;-80
2021/11/10 10:24:27;;;;;;;5.72;3.55;;;;;;;17.93;62.44;102513.16;4757999;30;20129;-79
2021/11/10 10:26:53;;;;;;;6.40;3.25;;;;;;;17.93;62.65;102526.19;4745139;30;20045;-79
2021/11/10 10:29:18;;;;;;;6.70;3.78;;;;;;;17.94;62.56;102520.09;4743797;30;20051;-80
2021/11/10 10:31:45;;;;;;;10.55;3.50;;;;;;;17.96;62.50;102522.75;4760348;30;20102;-80
2021/11/10 10:34:14;;;;;;;5.35;3.22;;;;;;;17.96;62.36;102526.22;4763227;30;20063;-79
2021/11/10 10:36:42;;;;;;;6.55;3.75;;;;;;;17.98;62.29;102523.66;4754643;29;20090;-80
2021/11/10 10:39:11;;;;;;;6.25;3.10;;;;;;;17.97;62.23;102527.13;4818810;29;20086;-80
2021/11/10 10:41:40;;;;;;;6.88;3.55;;;;;;;17.98;62.33;102532.34;4801317;29;20049;-80
2021/11/10 10:44:10;;;;;;;6.00;3.38;;;;;;;17.99;62.19;102528.91;4823800;29;20034;-80
2021/11/10 10:46:39;;;;;;;4.65;3.13;;;;;;;18.00;62.42;102528.03;4842011;29;20010;-82
2021/11/10 10:49:13;;;;;;;7.22;3.20;;;;;;;18.00;62.19;102525.41;4843299;29;20122;-82
2021/11/10 10:51:40;;;;;;;5.25;3.30;;;;;;;18.00;62.50;102524.56;4843151;29;20064;-83
2021/11/10 10:54:09;;;;;;;5.13;3.20;;;;;;;18.02;62.42;102522.84;4844111;29;20098;-83
2021/11/10 10:56:37;;;;;;;5.70;3.22;;;;;;;18.00;62.30;102517.59;4813497;29;20034;-82
2021/11/10 10:59:09;;;;;;;5.30;3.15;;;;;;;17.99;62.23;102521.09;4844349;29;20019;-83
2021/11/10 11:01:38;;;;;;;5.45;3.28;;;;;;;18.01;62.13;102521.97;4844134;29;20041;-82
2021/11/10 11:04:09;;;;;;;4.85;3.00;;;;;;;18.02;62.40;102521.13;4844235;29;20038;-81
2021/11/10 11:06:58;;;;;;;5.30;3.03;;;;;;;18.02;62.35;102520.25;4810692;29;20107;-78
2021/11/10 11:09:28;;;;;;;6.88;3.45;;;;;;;18.02;62.37;102521.13;4808392;29;20026;-79
2021/11/10 11:12:07;;;;;;;4.70;3.20;;;;;;;18.06;62.71;102511.63;4825228;29;20118;-79
2021/11/10 11:15:02;;;;;;;6.93;3.30;;;;;;;18.05;62.71;102507.25;4829174;29;20103;-80
2021/11/10 11:17:32;;;;;;;7.20;3.05;;;;;;;18.05;62.65;102499.44;4810025;29;20496;-80
2021/11/10 11:20:01;;;;;;;5.50;3.28;;;;;;;18.05;62.41;102502.94;4809244;29;20042;-80
2021/11/10 11:22:29;;;;;;;7.28;3.33;;;;;;;18.05;62.35;102502.03;4809586;29;20078;-79
2021/11/10 11:24:55;;;;;;;5.85;3.15;;;;;;;18.04;62.47;102495.97;4809203;29;20051;-79
2021/11/10 11:27:28;;;;;;;6.05;3.40;;;;;;;18.03;62.44;102494.22;4808642;29;20034;-80
2021/11/10 11:29:55;;;;;;;5.50;3.20;;;;;;;18.03;62.32;102485.50;4824900;29;20111;-80
2021/11/10 11:32:27;;;;;;;7.47;3.30;;;;;;;18.03;62.46;102488.13;4808638;29;20034;-79
2021/11/10 11:34:59;;;;;;;5.60;3.17;;;;;;;18.04;62.33;102485.53;4808800;29;20023;-79
2021/11/10 11:37:26;;;;;;;8.75;3.00;;;;;;;18.04;62.39;102487.28;4808060;29;20039;-79
2021/11/10 11:39:53;;;;;;;5.47;3.30;;;;;;;18.05;62.30;102494.22;4808938;29;20129;-79
2021/11/10 11:42:19;;;;;;;6.95;3.20;;;;;;;18.04;62.57;102485.53;4798574;29;20475;-79
2021/11/10 11:44:45;;;;;;;6.28;3.30;;;;;;;18.05;62.49;102481.19;4822464;29;20392;-79
2021/11/10 11:47:18;;;;;;;5.53;3.22;;;;;;;18.06;62.17;102475.16;4823790;29;20122;-80
2021/11/10 11:49:45;;;;;;;6.88;3.00;;;;;;;18.07;62.42;102476.91;4794613;29;20091;-82
2021/11/10 11:52:13;;;;;;;5.57;2.95;;;;;;;18.06;62.24;102476.03;4825451;29;20041;-79
2021/11/10 11:54:44;;;;;;;5.13;2.80;;;;;;;18.08;62.57;102476.94;4816895;29;20084;-80
2021/11/10 11:57:13;;;;;;;5.75;2.90;;;;;;;18.08;62.66;102478.66;4797278;29;20488;-80
2021/11/10 11:59:40;;;;;;;5.30;3.03;;;;;;;18.08;62.64;102466.50;4797624;29;20034;-80
2021/11/10 12:02:27;;;;;;;7.60;3.00;;;;;;;18.11;62.33;102464.78;4814345;29;20049;-80
2021/11/10 12:04:54;;;;;;;5.30;2.97;;;;;;;18.08;62.33;102463.03;4797933;29;20030;-81
2021/11/10 12:07:51;;;;;;;5.15;2.80;;;;;;;18.09;62.46;102465.66;4814324;29;20392;-80
2021/11/10 12:10:22;;;;;;;4.68;2.95;;;;;;;18.10;62.44;102466.53;4800077;29;20183;-80
2021/11/10 12:13:17;;;;;;;4.32;2.67;;;;;;;18.10;62.49;102469.13;4831371;29;20094;-80
2021/11/10 12:16:18;;;;;;;5.53;2.90;;;;;;;18.09;62.30;102460.47;4833039;29;20139;-81
2021/11/10 12:18:54;;;;;;;4.97;2.80;;;;;;;18.07;62.44;102462.16;4826247;29;20094;-80
2021/11/10 12:21:21;;;;;;;4.35;2.80;;;;;;;18.05;62.65;102474.28;4802451;29;20119;-81
2021/11/10 12:23:50;;;;;;;5.38;2.88;;;;;;;18.05;62.64;102471.69;4832187;29;20058;-80
2021/11/10 12:26:18;;;;;;;5.82;3.00;;;;;;;18.04;62.59;102469.03;4832516;29;20055;-81
2021/11/10 12:28:50;;;;;;;5.20;3.10;;;;;;;18.03;62.62;102462.97;4818488;29;20023;-81
2021/11/10 12:31:30;;;;;;;5.22;2.70;;;;;;;18.04;62.73;102474.25;4803746;29;20042;-81
2021/11/10 12:34:03;;;;;;;4.88;2.80;;;;;;;18.03;62.34;102468.19;4819461;29;20031;-80
2021/11/10 12:37:00;;;;;;;5.13;3.00;;;;;;;18.05;62.27;102460.38;4833996;29;20038;-81
2021/11/10 12:39:34;;;;;;;5.00;3.10;;;;;;;18.04;62.46;102463.84;4799778;29;20638;-81
2021/11/10 12:42:02;;;;;;;4.63;2.78;;;;;;;18.03;62.51;102452.56;4819305;29;20027;-81
2021/11/10 12:44:36;;;;;;;5.63;3.15;;;;;;;18.04;62.31;102450.81;4834553;29;20029;-81
2021/11/10 12:47:03;;;;;;;3.58;2.55;;;;;;;18.04;62.39;102450.81;4819587;29;20027;-80
2021/11/10 12:49:29;;;;;;;4.63;2.60;;;;;;;18.02;62.40;102442.97;4833522;29;20120;-81
2021/11/10 12:52:10;;;;;;;4.43;2.58;;;;;;;18.02;62.45;102448.19;4803806;29;20058;-81
2021/11/10 12:54:44;;;;;;;4.18;2.60;;;;;;;18.02;62.68;102450.78;4818278;29;20476;-81
2021/11/10 12:57:11;;;;;;;6.72;2.70;;;;;;;18.01;62.24;102453.38;4803132;29;20070;-81
2021/11/10 12:59:49;;;;;;;4.88;3.00;;;;;;;18.01;62.29;102456.00;4818567;29;20049;-80
2021/11/10 13:02:17;;;;;;;5.28;3.17;;;;;;;18.01;62.50;102453.38;4803128;29;20401;-80
2021/11/10 13:04:48;;;;;;;5.53;2.53;;;;;;;17.99;62.38;102453.34;4802865;29;20031;-81
2021/11/10 13:07:23;;;;;;;4.90;2.90;;;;;;;17.98;62.63;102446.38;4818375;29;20037;-81
2021/11/10 13:09:50;;;;;;;4.43;2.60;;;;;;;18.00;62.35;102449.00;4802607;29;20050;-79
2021/11/10 13:12:18;;;;;;;4.97;2.60;;;;;;;17.99;62.49;102447.28;4833467;29;20083;-81
2021/11/10 13:14:49;;;;;;;4.82;2.83;;;;;;;17.98;62.27;102440.31;4833958;29;20457;-81
2021/11/10 13:17:21;;;;;;;4.28;2.80;;;;;;;17.98;62.27;102429.88;4818643;29;20472;-81
2021/11/10 13:19:53;;;;;;;4.95;2.85;;;;;;;17.98;62.27;102433.34;4817964;29;20054;-80
2021/11/10 13:22:41;;;;;;;5.43;2.97;;;;;;;17.98;62.29;102432.47;4800989;29;20247;-80
2021/11/10 13:25:23;;;;;;;3.47;2.70;;;;;;;17.97;62.33;102429.00;4833505;29;20031;-80